Time;durP1;ratioP1;P1;durP2;ratioP2;P2;SDS_P1;SDS_P2;PMS_P1;PMS_P2;Temp;Humidity;BMP_temperature;BMP_pressure;BME280_temperature;BME280_humidity;BME280_pressure;Samples;Min_cycle;Max_cycle;Signal;HPM_P1;HPM_P2
2022/12/22 03:28:42;;;;;;;145.98;71.50;;;;;;;-4.04;91.21;97898.78;10245259;28;20080;-57
2022/12/22 03:33:41;;;;;;;154.23;73.13;;;;;;;-4.00;90.94;97904.13;10245527;28;20073;-57
2022/12/22 03:38:40;;;;;;;114.72;56.53;;;;;;;-4.15;90.64;97903.22;10244378;28;20065;-56
2022/12/22 03:49:09;;;;;;;113.22;50.00;;;;;;;-4.21;91.25;97916.41;10240134;28;20594;-56
2022/12/22 03:54:11;;;;;;;129.73;58.15;;;;;;;-4.20;90.94;97907.13;10238222;28;20223;-56
2022/12/22 03:59:12;;;;;;;122.70;61.85;;;;;;;-4.21;91.05;97906.28;10239087;28;20069;-56
2022/12/22 04:04:22;;;;;;;124.60;58.13;;;;;;;-4.27;90.74;97902.50;10229737;28;20542;-57
2022/12/22 04:09:21;;;;;;;114.28;56.78;;;;;;;-4.38;91.60;97898.44;10248923;28;20074;-56
2022/12/22 04:14:21;;;;;;;116.80;57.78;;;;;;;-4.35;90.79;97888.47;10247250;28;20069;-56
2022/12/22 04:19:30;;;;;;;120.57;62.47;;;;;;;-4.44;91.13;97886.31;10250363;28;20093;-56
2022/12/22 04:24:29;;;;;;;121.60;61.03;;;;;;;-4.47;90.87;97893.69;10246151;28;20073;-56
2022/12/22 04:29:28;;;;;;;134.98;65.68;;;;;;;-4.43;91.05;97888.91;10246462;28;20046;-56
2022/12/22 04:34:28;;;;;;;187.15;94.20;;;;;;;-4.38;91.50;97899.31;10247506;28;20530;-57
2022/12/22 04:39:27;;;;;;;196.57;96.70;;;;;;;-4.38;90.48;97883.25;10249707;28;20038;-56
2022/12/22 04:44:26;;;;;;;181.95;91.88;;;;;;;-4.36;91.37;97886.75;10247467;28;20034;-57
2022/12/22 04:49:24;;;;;;;186.20;90.15;;;;;;;-4.34;90.44;97883.53;10250449;28;20057;-57
2022/12/22 04:54:23;;;;;;;166.95;82.65;;;;;;;-4.48;90.66;97861.56;10249473;28;20046;-56
2022/12/22 04:59:22;;;;;;;155.77;77.10;;;;;;;-4.37;90.64;97885.88;10247712;28;20034;-56
2022/12/22 05:04:21;;;;;;;173.98;92.50;;;;;;;-4.35;90.65;97891.88;10247728;28;20102;-56
2022/12/22 05:09:20;;;;;;;145.68;73.78;;;;;;;-4.40;91.01;97886.53;10248687;28;20054;-57
2022/12/22 05:14:19;;;;;;;114.03;61.35;;;;;;;-4.51;91.29;97889.22;10221445;28;20034;-57
2022/12/22 05:19:18;;;;;;;118.65;58.05;;;;;;;-4.57;90.85;97878.75;10240164;28;20030;-56
2022/12/22 05:24:17;;;;;;;107.18;52.58;;;;;;;-4.48;91.22;97884.38;10248323;28;20747;-56
2022/12/22 05:29:16;;;;;;;111.40;52.70;;;;;;;-4.47;91.29;97881.03;10234694;28;20038;-57
2022/12/22 05:34:17;;;;;;;113.15;54.28;;;;;;;-4.42;90.45;97880.53;10240542;28;20048;-56
2022/12/22 05:39:16;;;;;;;108.05;54.10;;;;;;;-4.44;90.70;97871.09;10217287;28;20082;-57
2022/12/22 05:44:16;;;;;;;114.57;55.60;;;;;;;-4.41;90.33;97879.75;10289324;28;20112;-57
2022/12/22 05:49:14;;;;;;;132.02;61.78;;;;;;;-4.46;90.06;97871.00;10279667;28;20073;-57
2022/12/22 05:54:16;;;;;;;168.75;79.90;;;;;;;-4.47;90.58;97888.63;10283846;28;20029;-57
2022/12/22 05:59:16;;;;;;;215.52;91.53;;;;;;;-4.48;91.74;97889.44;10286375;28;20479;-57
2022/12/22 06:04:16;;;;;;;256.27;125.45;;;;;;;-4.43;90.96;97890.56;10231516;28;20074;-56
2022/12/22 06:09:16;;;;;;;239.02;118.80;;;;;;;-4.39;91.28;97887.44;10274982;28;20156;-57
2022/12/22 06:14:15;;;;;;;;;;;;;;;-4.31;90.44;97892.97;10274430;28;20065;-57
2022/12/22 06:19:15;;;;;;;215.82;106.13;;;;;;;-4.21;90.45;97890.16;10270904;28;19921;-57
2022/12/22 06:24:16;;;;;;;243.15;119.85;;;;;;;-4.10;90.38;97899.28;10301621;28;20149;-57
2022/12/22 06:29:15;;;;;;;223.13;112.82;;;;;;;-4.13;90.52;97883.03;10266907;28;20069;-56
2022/12/22 06:34:18;;;;;;;205.40;109.30;;;;;;;-4.01;90.12;97893.88;10285086;28;20029;-56
2022/12/22 06:39:19;;;;;;;219.45;116.50;;;;;;;-3.91;90.26;97898.69;10281861;28;20073;-57
2022/12/22 06:44:21;;;;;;;249.50;128.65;;;;;;;-3.79;90.54;97895.97;10279900;28;20073;-57
2022/12/22 06:49:20;;;;;;;301.92;148.32;;;;;;;-3.61;90.51;97881.78;10269922;28;20471;-56
2022/12/22 06:54:21;;;;;;;309.15;154.82;;;;;;;-3.41;90.04;97885.47;10280766;28;20136;-57
2022/12/22 06:59:20;;;;;;;388.70;180.13;;;;;;;-3.18;89.83;97888.38;10284866;28;20061;-56
2022/12/22 07:04:20;;;;;;;289.30;146.13;;;;;;;-3.05;89.31;97897.53;10284830;28;20037;-57
2022/12/22 07:09:25;;;;;;;341.90;173.38;;;;;;;-3.02;89.75;97901.09;10279126;28;20127;-57
2022/12/22 07:14:24;;;;;;;335.75;176.82;;;;;;;-2.89;89.90;97907.72;10280370;28;20057;-57
2022/12/22 07:19:24;;;;;;;324.13;162.77;;;;;;;-2.70;90.06;97895.22;10280276;28;20034;-57
2022/12/22 07:24:30;;;;;;;284.52;149.02;;;;;;;-2.47;89.76;97898.09;10279612;28;20072;-57
2022/12/22 07:29:29;;;;;;;276.83;149.68;;;;;;;-2.26;89.97;97905.94;10276855;28;20567;-57
2022/12/22 07:34:29;;;;;;;285.52;155.02;;;;;;;-2.04;89.54;97909.59;10243581;28;20058;-57
2022/12/22 07:39:28;;;;;;;274.10;145.45;;;;;;;-1.80;89.42;97900.63;10276865;28;20875;-57
2022/12/22 07:44:27;;;;;;;259.70;149.20;;;;;;;-1.69;88.85;97902.03;10285423;28;20025;-57
2022/12/22 07:54:44;;;;;;;213.10;122.30;;;;;;;-1.45;88.30;97888.75;10285528;28;20201;-57
2022/12/22 07:59:45;;;;;;;212.75;114.25;;;;;;;-1.38;88.49;97885.69;10289369;28;20106;-57
2022/12/22 08:04:45;;;;;;;191.75;117.47;;;;;;;-1.31;87.83;97877.53;10285330;28;20057;-57
2022/12/22 08:09:45;;;;;;;197.27;119.03;;;;;;;-1.12;88.11;97886.06;10286481;28;20092;-57
2022/12/22 08:14:48;;;;;;;202.90;118.50;;;;;;;-1.01;87.85;97884.88;10258491;28;20077;-57
2022/12/22 08:19:48;;;;;;;205.52;118.85;;;;;;;-0.87;87.79;97890.63;9358949;28;10000866;-57
2022/12/22 08:24:51;;;;;;;194.45;112.80;;;;;;;-0.80;87.43;97882.44;10283083;28;20077;-57
2022/12/22 08:29:58;;;;;;;229.10;128.32;;;;;;;-0.70;88.50;97881.19;10258728;28;20133;-57
2022/12/22 08:34:58;;;;;;;179.20;103.18;;;;;;;-0.61;87.88;97895.19;10284238;28;20109;-57
2022/12/22 08:40:03;;;;;;;173.02;101.88;;;;;;;-0.66;88.60;97890.72;10280858;28;20105;-57
2022/12/22 08:45:03;;;;;;;165.40;96.32;;;;;;;-0.66;89.02;97881.38;10270340;28;20130;-56
2022/12/22 08:50:04;;;;;;;126.53;78.35;;;;;;;-0.65;89.44;97872.06;10266877;28;20110;-57
2022/12/22 08:55:05;;;;;;;143.50;84.57;;;;;;;-0.46;89.85;97867.00;10270820;28;20129;-56
2022/12/22 09:00:07;;;;;;;135.82;83.80;;;;;;;-0.23;89.56;97865.44;10268919;28;20109;-56
2022/12/22 09:05:06;;;;;;;137.15;80.80;;;;;;;-0.13;89.29;97861.59;10273545;28;20654;-57
2022/12/22 09:10:09;;;;;;;144.65;82.60;;;;;;;0.11;89.03;97840.47;10269593;28;20117;-57
2022/12/22 09:15:09;;;;;;;130.68;75.13;;;;;;;0.31;88.45;97839.63;10269623;28;20149;-56
2022/12/22 09:20:10;;;;;;;126.03;75.00;;;;;;;0.44;87.49;97834.16;10268043;28;20518;-56
2022/12/22 09:25:09;;;;;;;129.85;75.07;;;;;;;0.61;86.62;97818.66;10282212;28;20057;-57
2022/12/22 09:30:13;;;;;;;;;;;;;;;0.84;85.85;97810.19;10287538;28;20078;-57
2022/12/22 09:35:21;;;;;;;153.32;87.70;;;;;;;1.08;85.32;97811.91;10279736;28;20196;-57
2022/12/22 09:40:21;;;;;;;133.02;81.93;;;;;;;1.29;84.99;97822.94;10285737;28;20057;-57
2022/12/22 09:45:21;;;;;;;129.93;79.57;;;;;;;1.55;83.93;97807.63;10280316;28;20105;-57
2022/12/22 09:50:24;;;;;;;126.75;72.78;;;;;;;1.74;82.97;97802.38;10266674;28;20150;-57
2022/12/22 09:55:23;;;;;;;146.82;86.05;;;;;;;1.77;81.73;97799.03;10287015;28;20069;-57
2022/12/22 10:00:27;;;;;;;154.68;92.47;;;;;;;1.85;81.88;97802.72;10279028;28;20029;-57
2022/12/22 10:05:52;;;;;;;137.45;85.07;;;;;;;2.12;81.97;97787.41;10280697;28;20073;-57
2022/12/22 10:10:55;;;;;;;189.52;107.95;;;;;;;2.33;80.34;97782.13;10273216;28;20527;-57
2022/12/22 10:15:54;;;;;;;127.07;75.45;;;;;;;2.40;79.32;97752.44;10282847;28;20084;-57
2022/12/22 10:21:05;;;;;;;126.13;80.63;;;;;;;2.72;77.22;97750.88;10280973;28;20084;-57
2022/12/22 10:26:12;;;;;;;110.05;69.57;;;;;;;2.77;75.65;97728.81;10267081;28;20060;-57
2022/12/22 10:31:18;;;;;;;125.70;77.57;;;;;;;3.00;74.92;97732.03;10266772;28;20130;-57
2022/12/22 10:36:22;;;;;;;114.57;73.28;;;;;;;3.25;73.14;97730.13;10276116;28;20073;-57
2022/12/22 10:41:23;;;;;;;86.55;54.72;;;;;;;3.31;69.95;97717.50;10285023;28;20060;-58
2022/12/22 10:47:02;;;;;;;98.13;54.97;;;;;;;3.62;70.94;97719.16;10280921;28;20124;-57
2022/12/22 10:52:17;;;;;;;45.30;25.95;;;;;;;3.83;67.39;97717.97;10272205;28;20789;-57
2022/12/22 10:57:16;;;;;;;39.20;23.35;;;;;;;3.91;64.71;97707.88;10281904;28;20058;-57
2022/12/22 11:02:21;;;;;;;45.50;27.65;;;;;;;4.00;62.56;97702.97;10281324;28;20137;-57
2022/12/22 11:07:20;;;;;;;46.33;29.35;;;;;;;4.25;62.38;97699.28;10276689;28;20606;-57
2022/12/22 11:12:22;;;;;;;;;;;;;;;4.44;60.58;97686.00;10279442;28;20077;-57
2022/12/22 11:17:33;;;;;;;39.97;24.88;;;;;;;4.67;58.60;97695.94;10277901;28;19959;-57
2022/12/22 11:23:10;;;;;;;42.20;25.27;;;;;;;4.89;57.21;97679.25;10298864;28;20062;-57
2022/12/22 11:28:21;;;;;;;40.00;22.25;;;;;;;5.06;55.45;97671.88;10268973;28;20161;-57
2022/12/22 11:33:26;;;;;;;41.75;21.65;;;;;;;5.27;55.91;97681.72;10297218;28;20076;-57
2022/12/22 11:38:30;;;;;;;37.97;20.95;;;;;;;5.52;54.57;97665.03;10291885;28;20076;-57
2022/12/22 11:43:41;;;;;;;39.20;20.73;;;;;;;5.72;53.11;97662.81;10299470;28;20062;-57
2022/12/22 11:49:24;;;;;;;39.42;22.15;;;;;;;5.92;51.16;97657.97;10288296;28;20081;-57
2022/12/22 11:54:42;;;;;;;34.58;23.30;;;;;;;6.23;51.71;97648.97;10297124;28;20873;-57
2022/12/22 12:00:10;;;;;;;38.22;22.60;;;;;;;6.36;50.05;97635.41;10298443;28;20507;-57
2022/12/22 12:05:39;;;;;;;45.08;28.10;;;;;;;6.63;50.27;97636.63;10298998;28;20065;-57
2022/12/22 12:10:44;;;;;;;50.08;32.05;;;;;;;6.87;49.49;97630.91;10297298;28;20074;-56
2022/12/22 12:16:09;;;;;;;51.60;30.90;;;;;;;7.12;49.43;97626.00;10296660;28;20069;-56
2022/12/22 12:21:41;;;;;;;56.60;34.85;;;;;;;7.39;47.95;97620.28;10271181;28;20073;-56
2022/12/22 12:27:11;;;;;;;56.15;36.17;;;;;;;7.49;46.85;97616.09;10276535;28;20124;-57
2022/12/22 12:32:19;;;;;;;65.25;39.33;;;;;;;7.72;45.96;97614.56;10283401;28;20125;-56
2022/12/22 12:37:28;;;;;;;64.72;39.92;;;;;;;7.89;45.36;97612.09;10287906;28;20120;-57
2022/12/22 12:42:32;;;;;;;57.23;37.50;;;;;;;8.04;44.03;97609.63;10287225;28;20088;-56
2022/12/22 12:47:32;;;;;;;71.15;41.83;;;;;;;8.26;43.98;97604.59;10287987;28;20074;-57
2022/12/22 12:52:37;;;;;;;67.93;44.65;;;;;;;8.45;43.47;97603.81;10286769;28;20065;-56
2022/12/22 12:57:48;;;;;;;86.88;56.40;;;;;;;8.55;43.42;97598.69;10273843;28;20121;-56
2022/12/22 13:02:56;;;;;;;74.70;49.97;;;;;;;8.66;43.38;97607.38;10276852;28;20109;-57
2022/12/22 13:08:24;;;;;;;52.13;32.58;;;;;;;8.80;44.13;97597.94;10271960;28;20121;-56
2022/12/22 13:13:23;;;;;;;49.88;32.03;;;;;;;8.85;44.74;97603.97;10291465;28;20089;-56
2022/12/22 13:18:24;;;;;;;57.63;36.22;;;;;;;8.87;44.95;97591.06;10286551;28;20073;-57
2022/12/22 13:23:28;;;;;;;51.33;33.25;;;;;;;8.89;44.90;97584.16;10281467;28;20065;-56
2022/12/22 13:28:28;;;;;;;42.72;29.80;;;;;;;8.84;45.29;97591.91;10283635;28;20117;-56
2022/12/22 13:33:29;;;;;;;42.80;29.65;;;;;;;8.91;45.66;97588.50;10288345;28;20105;-56
2022/12/22 13:38:34;;;;;;;49.35;33.97;;;;;;;8.85;45.74;97588.47;10285978;28;20045;-56
2022/12/22 13:43:34;;;;;;;50.83;32.45;;;;;;;8.73;45.42;97593.59;10289298;28;20076;-56
2022/12/22 13:48:41;;;;;;;45.38;32.15;;;;;;;8.58;46.10;97596.16;10287451;28;20057;-56
2022/12/22 13:53:43;;;;;;;73.22;45.95;;;;;;;8.59;47.70;97590.97;10287876;28;20514;-56
2022/12/22 13:58:44;;;;;;;67.97;40.75;;;;;;;8.60;48.28;97584.94;10284833;28;20072;-56
2022/12/22 14:03:51;;;;;;;53.90;38.28;;;;;;;8.49;48.74;97584.88;10283688;28;20068;-56
2022/12/22 14:08:51;;;;;;;61.42;35.00;;;;;;;8.38;48.87;97576.22;10281782;28;20078;-57
2022/12/22 14:13:50;;;;;;;68.70;39.38;;;;;;;8.25;49.74;97582.19;10281700;28;20518;-57
2022/12/22 14:18:51;;;;;;;94.35;47.53;;;;;;;8.03;50.41;97581.19;10285797;28;20495;-57
2022/12/22 14:23:50;;;;;;;86.50;48.92;;;;;;;7.80;50.99;97587.09;10282304;28;20128;-57
2022/12/22 14:28:54;;;;;;;88.15;52.00;;;;;;;7.50;52.40;97582.53;10283446;28;20066;-57
2022/12/22 14:34:04;;;;;;;111.45;64.43;;;;;;;7.28;53.39;97581.44;10282541;28;20111;-57
2022/12/22 14:39:08;;;;;;;119.60;67.38;;;;;;;7.01;54.66;97588.06;10281199;28;20120;-57
2022/12/22 14:44:16;;;;;;;132.13;70.82;;;;;;;6.79;55.29;97576.63;10282760;28;20093;-57
2022/12/22 14:49:18;;;;;;;134.60;76.43;;;;;;;6.46;57.07;97584.84;10282280;28;20132;-57
2022/12/22 14:54:25;;;;;;;142.85;81.05;;;;;;;6.20;57.37;97587.09;10283523;28;20084;-57
2022/12/22 14:59:27;;;;;;;132.95;82.63;;;;;;;5.96;58.70;97591.06;10279354;28;20109;-57
2022/12/22 15:04:27;;;;;;;143.23;87.45;;;;;;;5.72;59.31;97583.84;10281869;28;20054;-57
2022/12/22 15:09:28;;;;;;;154.75;90.32;;;;;;;5.49;60.66;97593.78;10265309;28;20116;-57
2022/12/22 15:14:30;;;;;;;158.45;95.45;;;;;;;5.21;61.53;97589.00;10275687;28;20132;-57
2022/12/22 15:19:32;;;;;;;151.68;94.20;;;;;;;4.97;62.57;97592.88;10282261;28;20070;-58
2022/12/22 15:24:31;;;;;;;151.57;87.75;;;;;;;4.74;63.49;97591.53;10279364;28;20746;-57
2022/12/22 15:29:30;;;;;;;126.75;72.90;;;;;;;4.55;64.09;97593.75;10276082;28;20945;-57
2022/12/22 15:34:30;;;;;;;111.10;68.13;;;;;;;4.42;64.98;97596.91;10281560;28;20049;-57
2022/12/22 15:39:29;;;;;;;106.05;63.25;;;;;;;4.34;65.33;97604.44;10280917;28;20106;-57
2022/12/22 15:44:28;;;;;;;120.43;72.18;;;;;;;4.26;66.01;97603.41;10280227;28;20018;-57
2022/12/22 15:49:28;;;;;;;132.50;83.15;;;;;;;4.13;66.74;97607.44;10277964;28;20120;-57
2022/12/22 15:54:31;;;;;;;117.88;73.22;;;;;;;3.96;67.17;97627.56;10277767;28;20118;-57
2022/12/22 15:59:30;;;;;;;129.68;78.47;;;;;;;3.79;68.49;97628.88;10279514;28;20105;-57
2022/12/22 16:04:29;;;;;;;132.13;79.78;;;;;;;3.64;68.81;97622.56;10286320;28;20811;-57
2022/12/22 16:09:37;;;;;;;130.15;77.57;;;;;;;3.51;69.68;97620.53;10278287;28;20100;-57
2022/12/22 16:14:36;;;;;;;147.95;87.38;;;;;;;3.41;69.93;97613.44;10285222;28;20190;-57
2022/12/22 16:19:35;;;;;;;130.43;74.30;;;;;;;3.28;70.68;97614.81;10278907;28;20061;-57
2022/12/22 16:24:36;;;;;;;202.18;114.10;;;;;;;3.24;71.13;97613.03;10289453;28;20043;-57
2022/12/22 16:29:36;;;;;;;201.73;111.70;;;;;;;3.15;71.60;97617.91;10286270;28;20117;-57
2022/12/22 16:34:35;;;;;;;;;;;;;;;3.06;71.96;97620.22;10279134;28;20113;-57
2022/12/22 16:39:34;;;;;;;187.07;100.90;;;;;;;2.96;72.79;97612.28;10285806;28;19913;-57
2022/12/22 16:44:33;;;;;;;225.07;130.65;;;;;;;2.78;73.36;97622.91;10286224;28;20026;-57
2022/12/22 16:49:31;;;;;;;170.93;100.72;;;;;;;2.76;73.66;97626.25;10283521;28;20128;-57
2022/12/22 16:54:30;;;;;;;155.68;94.95;;;;;;;2.57;73.84;97605.25;10288825;28;20141;-56
2022/12/22 16:59:29;;;;;;;143.50;83.53;;;;;;;2.56;74.27;97623.16;10286529;28;20040;-56
2022/12/22 17:04:30;;;;;;;163.50;93.70;;;;;;;2.48;75.02;97629.75;10285244;28;20061;-57
2022/12/22 17:09:45;;;;;;;185.45;105.22;;;;;;;2.36;75.28;97627.69;10284876;28;20786;-56
2022/12/22 17:14:46;;;;;;;174.27;97.22;;;;;;;2.25;75.94;97618.81;10267112;28;20109;-57
2022/12/22 17:19:45;;;;;;;188.90;114.32;;;;;;;2.15;76.61;97626.22;10281274;28;20202;-56
2022/12/22 17:24:43;;;;;;;361.98;217.63;;;;;;;2.02;76.82;97611.34;10281634;28;20088;-57
2022/12/22 17:29:42;;;;;;;404.92;243.95;;;;;;;1.91;77.12;97625.50;10280110;28;20034;-56
2022/12/22 17:34:41;;;;;;;402.20;241.73;;;;;;;1.83;78.07;97639.72;10275564;28;20037;-56
2022/12/22 17:39:41;;;;;;;448.30;246.30;;;;;;;1.74;78.23;97641.19;10286504;28;20477;-56
2022/12/22 17:44:40;;;;;;;330.02;190.00;;;;;;;1.70;78.59;97641.91;10278987;28;20121;-56
2022/12/22 17:49:43;;;;;;;274.45;161.43;;;;;;;1.62;78.77;97647.59;10287706;28;20034;-57
2022/12/22 17:54:42;;;;;;;287.73;172.75;;;;;;;1.49;78.86;97634.41;10282890;28;20062;-56
2022/12/22 17:59:41;;;;;;;321.70;190.27;;;;;;;1.42;79.71;97634.19;10284651;28;20057;-56
2022/12/22 18:04:40;;;;;;;321.48;188.80;;;;;;;1.33;79.56;97638.16;10285738;28;20110;-57
2022/12/22 18:09:39;;;;;;;328.40;188.88;;;;;;;1.24;80.13;97631.88;10284009;28;20049;-57
2022/12/22 18:14:38;;;;;;;325.08;189.25;;;;;;;1.14;80.34;97628.13;10274240;28;20120;-57
2022/12/22 18:19:37;;;;;;;340.85;194.90;;;;;;;1.02;80.68;97630.28;10283850;28;20018;-57
2022/12/22 18:24:36;;;;;;;369.65;211.55;;;;;;;0.96;81.12;97624.94;10276581;28;20033;-57
2022/12/22 18:29:35;;;;;;;317.13;181.80;;;;;;;0.92;81.24;97634.22;10282367;28;20104;-57
2022/12/22 18:34:35;;;;;;;297.92;171.15;;;;;;;0.86;81.48;97631.44;10278844;28;20073;-57
2022/12/22 18:39:35;;;;;;;356.17;203.40;;;;;;;0.78;81.85;97627.72;10281629;28;20054;-57
2022/12/22 18:44:34;;;;;;;313.42;181.05;;;;;;;0.62;81.86;97621.22;10273645;28;20137;-57
2022/12/22 18:49:33;;;;;;;336.58;197.77;;;;;;;0.59;82.42;97639.88;10280975;28;20036;-57
2022/12/22 18:54:35;;;;;;;355.60;205.93;;;;;;;0.54;83.15;97637.94;10279903;28;20036;-56
2022/12/22 18:59:34;;;;;;;358.52;206.82;;;;;;;0.52;83.09;97637.00;10277510;28;20463;-57
2022/12/22 19:04:33;;;;;;;340.55;196.73;;;;;;;0.46;83.54;97643.63;10280311;28;20474;-56
2022/12/22 19:09:32;;;;;;;318.85;186.18;;;;;;;0.40;83.87;97638.28;10280377;28;20042;-57
2022/12/22 19:14:31;;;;;;;317.83;185.30;;;;;;;0.35;83.87;97638.94;10274897;28;20036;-57
2022/12/22 19:19:30;;;;;;;406.15;238.05;;;;;;;0.31;84.17;97644.75;10265884;28;20116;-56
2022/12/22 19:24:29;;;;;;;347.20;195.27;;;;;;;0.19;84.12;97633.25;10273832;28;20040;-57
2022/12/22 19:29:28;;;;;;;360.10;210.93;;;;;;;0.20;84.37;97650.34;10277577;28;20034;-56
2022/12/22 19:34:27;;;;;;;419.83;233.02;;;;;;;0.17;84.65;97654.44;10262527;28;20041;-57
2022/12/22 19:39:26;;;;;;;370.90;206.10;;;;;;;0.15;84.99;97654.41;10287009;28;20092;-56
2022/12/22 19:44:28;;;;;;;361.33;200.68;;;;;;;0.14;85.01;97647.53;10290864;28;20038;-56
2022/12/22 19:49:28;;;;;;;366.27;201.45;;;;;;;0.05;85.21;97629.31;10274917;28;20117;-56
2022/12/22 19:54:26;;;;;;;374.98;211.38;;;;;;;0.03;85.06;97636.03;10280959;28;20133;-56
2022/12/22 19:59:38;;;;;;;379.88;220.15;;;;;;;-0.03;85.33;97652.00;10288868;28;20100;-56
2022/12/22 20:04:37;;;;;;;394.80;241.35;;;;;;;-0.20;86.95;97653.03;10279533;28;20114;-56
2022/12/22 20:09:36;;;;;;;405.20;242.35;;;;;;;-0.23;87.63;97663.09;10288586;28;20050;-56
2022/12/22 20:14:35;;;;;;;393.55;225.85;;;;;;;-0.18;86.77;97661.63;10270014;28;20522;-57
2022/12/22 20:19:34;;;;;;;390.75;225.40;;;;;;;-0.17;86.86;97650.59;10283261;28;20415;-56
2022/12/22 20:24:33;;;;;;;396.95;226.35;;;;;;;-0.22;87.04;97655.50;10279237;28;20034;-56
2022/12/22 20:29:32;;;;;;;391.05;220.38;;;;;;;-0.27;87.12;97658.72;10286825;28;20113;-56
2022/12/22 20:34:31;;;;;;;392.35;211.18;;;;;;;-0.28;87.12;97662.03;10286521;28;20374;-56
2022/12/22 20:39:30;;;;;;;398.92;226.05;;;;;;;-0.30;87.43;97653.47;10288099;28;20033;-56
2022/12/22 20:44:29;;;;;;;361.98;204.93;;;;;;;-0.28;87.57;97656.94;10285663;28;20030;-56
2022/12/22 20:49:28;;;;;;;342.98;189.75;;;;;;;-0.32;87.55;97652.53;10283322;28;20407;-56
2022/12/22 20:54:27;;;;;;;364.55;206.88;;;;;;;-0.34;87.64;97652.47;10287872;28;20108;-56
2022/12/22 20:59:26;;;;;;;410.90;230.52;;;;;;;-0.42;87.98;97657.25;10287717;28;20026;-56
2022/12/22 21:04:25;;;;;;;389.92;217.40;;;;;;;-0.42;87.43;97654.69;10278066;28;20057;-56
2022/12/22 21:09:24;;;;;;;389.75;216.75;;;;;;;-0.45;88.19;97652.03;10286379;28;20236;-56
2022/12/22 21:14:23;;;;;;;470.05;266.63;;;;;;;-0.48;88.27;97662.13;10286213;28;20089;-56
2022/12/22 21:19:22;;;;;;;347.25;193.52;;;;;;;-0.49;88.12;97657.81;10287336;28;20032;-56
2022/12/22 21:24:21;;;;;;;309.60;179.65;;;;;;;-0.45;88.33;97657.13;10269485;28;20042;-56
2022/12/22 21:29:23;;;;;;;317.15;179.65;;;;;;;-0.47;88.19;97653.66;10281440;28;20484;-56
2022/12/22 21:34:22;;;;;;;321.10;194.63;;;;;;;-0.50;88.09;97653.53;10278120;28;20491;-56
2022/12/22 21:39:38;;;;;;;310.27;173.00;;;;;;;-0.53;88.41;97632.13;10279774;28;20486;-56
2022/12/22 21:44:36;;;;;;;314.33;181.43;;;;;;;-0.50;88.15;97638.25;10288329;28;20095;-56
2022/12/22 21:49:35;;;;;;;315.15;184.65;;;;;;;-0.63;89.27;97651.28;10285054;28;20331;-56
2022/12/22 21:54:34;;;;;;;243.40;147.35;;;;;;;-0.72;89.46;97656.91;10286051;28;20030;-57
2022/12/22 21:59:33;;;;;;;200.75;120.03;;;;;;;-0.73;89.71;97660.25;10286629;28;20463;-56
2022/12/22 22:04:32;;;;;;;215.05;127.03;;;;;;;-0.74;90.11;97652.53;10261835;28;20030;-56
2022/12/22 22:09:31;;;;;;;210.80;129.32;;;;;;;-0.70;89.67;97660.34;10278851;28;20053;-56
2022/12/22 22:14:30;;;;;;;200.95;121.72;;;;;;;-0.63;89.67;97643.66;10276851;28;20055;-56
2022/12/22 22:19:29;;;;;;;199.35;123.63;;;;;;;-0.61;90.07;97629.28;10280730;28;20045;-56
2022/12/22 22:24:31;;;;;;;260.40;147.40;;;;;;;-0.56;90.21;97637.13;10273986;28;20042;-56
2022/12/22 22:29:30;;;;;;;308.45;176.75;;;;;;;-0.51;90.05;97618.69;10288046;28;20073;-56
2022/12/22 22:34:29;;;;;;;347.48;199.65;;;;;;;-0.47;90.00;97630.72;10284130;28;20931;-56
2022/12/22 22:39:28;;;;;;;332.13;184.52;;;;;;;-0.38;89.96;97628.53;10287756;28;20037;-56
2022/12/22 22:44:27;;;;;;;295.27;168.23;;;;;;;-0.29;89.67;97617.84;10287092;28;20025;-56
2022/12/22 22:49:26;;;;;;;295.58;166.02;;;;;;;-0.26;89.86;97609.44;10285455;28;20036;-56
2022/12/22 22:54:25;;;;;;;313.02;172.95;;;;;;;-0.20;89.91;97597.78;10282993;28;20040;-57
2022/12/22 22:59:24;;;;;;;312.05;176.02;;;;;;;-0.17;89.63;97602.13;10279367;28;20467;-56
2022/12/22 23:04:23;;;;;;;267.83;146.45;;;;;;;-0.13;89.68;97598.91;10286166;28;20479;-56
2022/12/22 23:09:22;;;;;;;236.52;128.35;;;;;;;-0.10;89.80;97572.66;10285361;28;20045;-56
2022/12/22 23:14:21;;;;;;;239.63;132.05;;;;;;;-0.05;89.41;97582.19;10275807;28;20096;-56
2022/12/22 23:19:20;;;;;;;215.52;121.68;;;;;;;-0.01;89.43;97578.09;10271648;28;20072;-56
2022/12/22 23:24:19;;;;;;;207.50;119.80;;;;;;;0.03;89.54;97578.25;10272332;28;20078;-56
2022/12/22 23:29:18;;;;;;;279.02;154.27;;;;;;;-0.00;89.21;97564.50;10270991;28;20136;-56
2022/12/22 23:34:18;;;;;;;256.65;146.85;;;;;;;0.00;89.18;97570.47;10284291;28;20050;-57
2022/12/22 23:39:17;;;;;;;178.80;105.82;;;;;;;0.03;89.40;97559.50;10282775;28;20065;-56
2022/12/22 23:44:16;;;;;;;;;;;;;;;0.09;89.21;97558.88;10273149;28;20069;-56
2022/12/22 23:49:15;;;;;;;149.20;85.82;;;;;;;0.10;89.37;97551.31;10286005;28;19922;-57
2022/12/22 23:54:14;;;;;;;149.55;89.80;;;;;;;0.18;88.98;97554.13;10284597;28;20050;-57
2022/12/22 23:59:12;;;;;;;154.80;89.20;;;;;;;0.22;88.90;97555.97;10273012;28;20038;-56
